Time;durP1;ratioP1;P1;durP2;ratioP2;P2;SDS_P1;SDS_P2;PMS_P1;PMS_P2;Temp;Humidity;BMP_temperature;BMP_pressure;BME280_temperature;BME280_humidity;BME280_pressure;Samples;Min_cycle;Max_cycle;Signal;HPM_P1;HPM_P2
2022/04/26 03:36:54;;;;;;;;;;;;;;;11.03;72.75;92237.19;2055329;70;20511;-70
2022/04/26 03:39:20;;;;;;;;;;;;;;;10.97;71.24;92237.63;2055063;69;20050;-70
2022/04/26 03:41:46;;;;;;;;;;;;;;;11.04;71.13;92233.78;2055209;69;20200;-70
2022/04/26 03:44:11;;;;;;;;;;;;;;;11.12;71.24;92234.16;2055174;70;20149;-70
2022/04/26 03:46:37;;;;;;;;;;;;;;;11.16;70.50;92239.28;2055202;70;20497;-70
2022/04/26 03:49:02;;;;;;;;;;;;;;;11.05;72.03;92232.41;2055098;70;20054;-70
2022/04/26 03:51:28;;;;;;;;;;;;;;;11.21;69.31;92238.13;2055222;69;20080;-70
2022/04/26 03:53:54;;;;;;;;;;;;;;;11.04;72.09;92230.22;2055113;69;20565;-70
2022/04/26 03:56:20;;;;;;;;;;;;;;;11.12;70.59;92237.00;2055030;70;20149;-70
2022/04/26 03:58:45;;;;;;;;;;;;;;;11.10;71.73;92239.00;2055457;69;20050;-71
2022/04/26 04:01:11;;;;;;;;;;;;;;;11.06;70.66;92236.69;2055414;70;20473;-71
2022/04/26 04:03:37;;;;;;;;;;;;;;;11.13;68.15;92230.03;2055613;70;20137;-71
2022/04/26 04:06:03;;;;;;;;;;;;;;;11.19;67.20;92238.03;2055401;69;20039;-71
2022/04/26 04:08:28;;;;;;;;;;;;;;;11.26;68.79;92228.53;2055306;70;20485;-71
2022/04/26 04:10:54;;;;;;;;;;;;;;;11.10;69.86;92242.53;2055623;70;20501;-71
2022/04/26 04:13:20;;;;;;;;;;;;;;;11.01;70.58;92237.84;2055868;69;20046;-72
2022/04/26 04:15:46;;;;;;;;;;;;;;;11.09;69.60;92231.91;2055888;70;20142;-71
2022/04/26 04:20:56;;;;;;;;;;;;;;;11.03;71.21;92231.56;2067054;69;20476;-71
2022/04/26 04:23:22;;;;;;;;;;;;;;;11.06;69.82;92230.31;2055745;70;20057;-71
2022/04/26 04:25:48;;;;;;;;;;;;;;;10.87;71.15;92237.09;2055891;69;20201;-71
2022/04/26 04:28:14;;;;;;;;;;;;;;;10.79;72.74;92240.22;2055932;70;20564;-71
2022/04/26 04:30:40;;;;;;;;;;;;;;;10.75;73.14;92240.00;2055894;69;20042;-71
2022/04/26 04:33:05;;;;;;;;;;;;;;;10.91;72.16;92243.69;2068838;69;20099;-71
2022/04/26 04:35:31;;;;;;;;;;;;;;;10.89;72.05;92242.81;2055867;70;20402;-71
2022/04/26 04:37:57;;;;;;;;;;;;;;;10.77;71.19;92248.56;2068737;69;20066;-72
2022/04/26 04:40:23;;;;;;;;;;;;;;;10.53;74.99;92244.44;2055882;70;20050;-71
2022/04/26 04:42:48;;;;;;;;;;;;;;;10.80;73.08;92250.13;2055817;69;20074;-71
2022/04/26 04:45:14;;;;;;;;;;;;;;;10.68;73.12;92249.50;2055822;70;20054;-71
2022/04/26 04:47:39;;;;;;;;;;;;;;;10.86;72.32;92253.28;2055850;69;20132;-71
2022/04/26 04:50:05;;;;;;;;;;;;;;;11.15;66.09;92257.56;2055891;70;20500;-72
2022/04/26 04:52:30;;;;;;;;;;;;;;;11.06;68.92;92258.50;2068815;69;20112;-71
2022/04/26 04:54:56;;;;;;;;;;;;;;;10.91;72.04;92262.66;2055745;69;20081;-70
2022/04/26 04:57:21;;;;;;;;;;;;;;;11.04;68.60;92266.81;2055839;70;20046;-71
2022/04/26 04:59:47;;;;;;;;;;;;;;;11.00;71.78;92270.19;2055832;69;20156;-71
2022/04/26 05:02:12;;;;;;;;;;;;;;;10.96;70.64;92264.34;2068826;69;20046;-70
2022/04/26 05:04:39;;;;;;;;;;;;;;;10.99;71.12;92267.97;2068808;69;20467;-70
2022/04/26 05:07:07;;;;;;;;;;;;;;;11.13;68.74;92277.16;2055847;70;20061;-70
2022/04/26 05:09:32;;;;;;;;;;;;;;;11.00;69.47;92273.00;2055819;70;20062;-71
2022/04/26 05:11:58;;;;;;;;;;;;;;;10.93;71.34;92268.38;2068805;69;20080;-71
2022/04/26 05:14:23;;;;;;;;;;;;;;;10.91;70.49;92276.75;2055902;70;20070;-71
2022/04/26 05:16:49;;;;;;;;;;;;;;;11.04;70.96;92276.03;2055754;70;20054;-71
2022/04/26 05:19:14;;;;;;;;;;;;;;;11.15;70.01;92277.28;2055817;70;20055;-71
2022/04/26 05:21:40;;;;;;;;;;;;;;;11.23;69.97;92265.69;2055479;69;20096;-71
2022/04/26 05:26:50;;;;;;;;;;;;;;;11.36;68.46;92264.94;2068733;69;20050;-71
2022/04/26 05:29:15;;;;;;;;;;;;;;;11.24;69.22;92261.53;2055954;70;20058;-71
2022/04/26 05:31:40;;;;;;;;;;;;;;;10.97;71.33;92265.06;2056082;69;20151;-70
2022/04/26 05:34:06;;;;;;;;;;;;;;;11.09;70.42;92262.88;2054877;69;20054;-69
2022/04/26 05:36:33;;;;;;;;;;;;;;;11.27;68.01;92265.88;2058634;69;20506;-69
2022/04/26 05:38:59;;;;;;;;;;;;;;;11.32;68.11;92259.13;2058023;69;20106;-69
2022/04/26 05:41:26;;;;;;;;;;;;;;;11.23;69.74;92269.25;2060170;69;20157;-69
2022/04/26 05:43:52;;;;;;;;;;;;;;;11.39;69.86;92260.88;2058729;69;20185;-70
2022/04/26 05:46:17;;;;;;;;;;;;;;;11.48;69.73;92262.03;2059643;69;20127;-69
2022/04/26 05:48:43;;;;;;;;;;;;;;;11.61;69.52;92259.19;2058942;69;20133;-70
2022/04/26 05:51:09;;;;;;;;;;;;;;;11.40;71.84;92254.59;2060473;69;20089;-70
2022/04/26 05:53:35;;;;;;;;;;;;;;;11.67;67.79;92259.47;2065668;69;20406;-70
2022/04/26 05:56:01;;;;;;;;;;;;;;;11.95;68.19;92267.91;2057181;69;20141;-70
2022/04/26 05:58:26;;;;;;;;;;;;;;;12.09;69.16;92265.03;2059722;69;20565;-70
2022/04/26 06:00:52;;;;;;;;;;;;;;;12.24;67.77;92272.09;2059675;69;20047;-70
2022/04/26 06:03:17;;;;;;;;;;;;;;;12.17;66.83;92266.16;2057120;69;20430;-70
2022/04/26 06:05:42;;;;;;;;;;;;;;;12.16;66.76;92255.50;2058407;69;20053;-70
2022/04/26 06:08:09;;;;;;;;;;;;;;;12.20;67.21;92256.44;2057192;69;20505;-70
2022/04/26 06:10:37;;;;;;;;;;;;;;;12.33;66.13;92259.84;2059667;69;20048;-70
2022/04/26 06:13:02;;;;;;;;;;;;;;;12.42;66.86;92262.41;2060681;69;20059;-69
2022/04/26 06:15:28;;;;;;;;;;;;;;;12.58;65.93;92261.69;2056454;69;20066;-69
2022/04/26 06:17:53;;;;;;;;;;;;;;;12.78;64.84;92262.63;2060608;69;20050;-70
2022/04/26 06:20:22;;;;;;;;;;;;;;;12.81;63.69;92264.19;2060131;69;20053;-72
2022/04/26 06:22:48;;;;;;;;;;;;;;;12.49;64.82;92265.50;2060300;69;20066;-70
2022/04/26 06:25:13;;;;;;;;;;;;;;;12.44;65.84;92261.75;2055530;70;20046;-71
2022/04/26 06:27:39;;;;;;;;;;;;;;;12.15;65.88;92263.25;2055617;69;20145;-71
2022/04/26 06:30:05;;;;;;;;;;;;;;;11.89;68.25;92259.16;2055512;70;20129;-70
2022/04/26 06:32:30;;;;;;;;;;;;;;;12.40;65.88;92261.56;2055650;70;20062;-70
2022/04/26 06:34:57;;;;;;;;;;;;;;;12.40;67.64;92262.28;2055582;70;20500;-71
2022/04/26 06:37:23;;;;;;;;;;;;;;;12.92;65.99;92262.53;2055648;70;20061;-71
2022/04/26 06:39:50;;;;;;;;;;;;;;;12.89;65.36;92261.00;2055508;70;20172;-71
2022/04/26 06:42:16;;;;;;;;;;;;;;;12.69;64.08;92257.97;2055547;70;20054;-72
2022/04/26 06:44:41;;;;;;;;;;;;;;;12.65;65.57;92257.81;2055574;70;20058;-71
2022/04/26 06:47:06;;;;;;;;;;;;;;;12.92;64.21;92260.47;2055555;70;20576;-71
2022/04/26 06:49:32;;;;;;;;;;;;;;;12.98;62.27;92252.25;2055566;69;20481;-71
2022/04/26 06:51:57;;;;;;;;;;;;;;;13.17;64.79;92255.88;2055500;70;20557;-71
2022/04/26 06:54:23;;;;;;;;;;;;;;;13.05;64.14;92253.22;2068373;69;20078;-70
2022/04/26 06:56:49;;;;;;;;;;;;;;;13.25;63.64;92256.28;2055595;70;20050;-70
2022/04/26 06:59:15;;;;;;;;;;;;;;;12.46;65.42;92256.94;2055578;70;20145;-71
2022/04/26 07:01:40;;;;;;;;;;;;;;;12.66;65.17;92257.16;2055552;70;20138;-71
2022/04/26 07:04:06;;;;;;;;;;;;;;;13.23;63.47;92244.84;2055547;69;20046;-70
2022/04/26 07:06:32;;;;;;;;;;;;;;;13.35;63.53;92250.31;2055785;69;20050;-72
2022/04/26 07:08:57;;;;;;;;;;;;;;;13.41;61.66;92242.81;2055580;70;20070;-71
2022/04/26 07:11:23;;;;;;;;;;;;;;;13.60;61.50;92238.66;2055551;70;20098;-72
2022/04/26 07:13:49;;;;;;;;;;;;;;;13.59;59.62;92237.22;2055473;70;20081;-72
2022/04/26 07:16:14;;;;;;;;;;;;;;;13.42;60.92;92232.25;2055669;69;20046;-72
2022/04/26 07:18:39;;;;;;;;;;;;;;;13.03;63.02;92241.84;2055592;70;20051;-71
2022/04/26 07:21:05;;;;;;;;;;;;;;;13.45;62.87;92228.88;2055666;70;20062;-71
2022/04/26 07:23:30;;;;;;;;;;;;;;;13.00;62.75;92233.91;2055398;70;20073;-72
2022/04/26 07:25:56;;;;;;;;;;;;;;;13.19;61.82;92234.09;2055507;69;20503;-71
2022/04/26 07:28:22;;;;;;;;;;;;;;;12.67;64.11;92236.00;2055550;69;20412;-71
2022/04/26 07:30:48;;;;;;;;;;;;;;;13.37;62.53;92225.69;2055479;70;20050;-71
2022/04/26 07:35:57;;;;;;;;;;;;;;;13.57;61.63;92231.50;2055484;70;20050;-71
2022/04/26 07:38:23;;;;;;;;;;;;;;;13.06;63.45;92229.28;2068386;69;20106;-71
2022/04/26 07:40:48;;;;;;;;;;;;;;;13.23;63.13;92239.94;2055584;70;20078;-71
2022/04/26 07:43:14;;;;;;;;;;;;;;;14.28;64.22;92249.91;2055425;70;20058;-71
2022/04/26 07:45:40;;;;;;;;;;;;;;;14.55;63.56;92246.03;2055623;70;20073;-72
2022/04/26 07:48:06;;;;;;;;;;;;;;;14.46;60.76;92245.69;2068984;69;20062;-72
2022/04/26 07:50:33;;;;;;;;;;;;;;;13.63;61.94;92234.56;2055940;69;20058;-71
2022/04/26 07:52:59;;;;;;;;;;;;;;;14.58;59.91;92234.16;2055740;69;20073;-71
2022/04/26 07:55:24;;;;;;;;;;;;;;;13.94;61.58;92230.19;2055743;70;20047;-72
2022/04/26 07:57:50;;;;;;;;;;;;;;;14.37;59.15;92238.25;2055964;70;20077;-72
2022/04/26 08:00:16;;;;;;;;;;;;;;;14.41;58.56;92226.38;2056155;70;20155;-71
2022/04/26 08:02:42;;;;;;;;;;;;;;;15.17;57.41;92227.84;2055899;70;20050;-71
2022/04/26 08:05:07;;;;;;;;;;;;;;;15.17;58.29;92233.53;2056072;70;20120;-71
2022/04/26 08:07:39;;;;;;;;;;;;;;;14.73;57.22;92226.91;2055933;70;20050;-71
2022/04/26 08:10:06;;;;;;;;;;;;;;;15.42;56.30;92229.44;2055867;69;20062;-71
2022/04/26 08:12:31;;;;;;;;;;;;;;;15.79;55.72;92227.91;2056147;70;20115;-71
2022/04/26 08:14:57;;;;;;;;;;;;;;;16.23;54.35;92231.50;2051126;69;20059;-71
2022/04/26 08:17:22;;;;;;;;;;;;;;;16.70;54.03;92232.25;2049457;70;20131;-72
2022/04/26 08:19:48;;;;;;;;;;;;;;;16.74;53.77;92232.38;2049325;70;20178;-71
2022/04/26 08:22:13;;;;;;;;;;;;;;;15.65;52.32;92230.25;2048689;70;20047;-72
2022/04/26 08:27:23;;;;;;;;;;;;;;;16.89;51.74;92239.22;2048728;70;20081;-72
2022/04/26 08:29:49;;;;;;;;;;;;;;;16.32;51.44;92229.66;2048712;70;20493;-72
2022/04/26 08:32:14;;;;;;;;;;;;;;;16.70;50.89;92235.81;2049267;70;20081;-71
2022/04/26 08:34:40;;;;;;;;;;;;;;;16.69;50.37;92225.09;2049333;70;20447;-71
2022/04/26 08:37:06;;;;;;;;;;;;;;;16.63;50.16;92217.13;2049286;70;20074;-71
2022/04/26 08:39:32;;;;;;;;;;;;;;;16.81;49.37;92222.66;2049160;70;20560;-71
2022/04/26 08:41:58;;;;;;;;;;;;;;;17.01;49.87;92225.38;2049401;70;20501;-71
2022/04/26 08:44:25;;;;;;;;;;;;;;;15.91;51.56;92216.25;2049256;70;20402;-70
2022/04/26 08:52:19;;;;;;;;;;;;;;;15.52;53.05;92218.44;2049285;70;20509;-71
2022/04/26 08:54:44;;;;;;;;;;;;;;;16.52;51.54;92210.38;2048638;70;20054;-71
2022/04/26 08:57:12;;;;;;;;;;;;;;;16.83;50.19;92204.94;2049371;70;20094;-71
2022/04/26 08:59:44;;;;;;;;;;;;;;;16.65;49.91;92205.81;2049242;70;20055;-71
2022/04/26 09:02:20;;;;;;;;;;;;;;;16.69;49.81;92208.78;2049405;70;20059;-70
2022/04/26 09:04:46;;;;;;;;;;;;;;;16.88;49.04;92204.38;2045952;69;20504;-70
2022/04/26 09:07:12;;;;;;;;;;;;;;;17.37;49.46;92205.81;2049201;70;20051;-70
2022/04/26 09:09:41;;;;;;;;;;;;;;;17.56;48.63;92207.03;2049158;70;20094;-71
2022/04/26 09:12:11;;;;;;;;;;;;;;;17.13;48.72;92196.56;2049138;70;20437;-71
2022/04/26 09:14:39;;;;;;;;;;;;;;;17.70;47.83;92193.16;2054063;70;20057;-71
2022/04/26 09:17:04;;;;;;;;;;;;;;;18.09;47.93;92191.31;2055788;69;20046;-71
2022/04/26 09:19:46;;;;;;;;;;;;;;;17.50;46.86;92199.06;2055818;69;20046;-71
2022/04/26 09:22:22;;;;;;;;;;;;;;;17.91;46.50;92194.44;2055750;69;20058;-71
2022/04/26 09:24:54;;;;;;;;;;;;;;;17.79;46.49;92196.97;2055741;69;20050;-71
2022/04/26 09:27:20;;;;;;;;;;;;;;;17.66;45.99;92190.22;2055897;70;20107;-71
2022/04/26 09:29:49;;;;;;;;;;;;;;;17.72;45.48;92195.34;2055780;69;20053;-70
2022/04/26 09:32:15;;;;;;;;;;;;;;;18.40;45.48;92192.06;2055985;70;20054;-70
2022/04/26 09:34:41;;;;;;;;;;;;;;;18.38;44.28;92183.50;2055912;70;20046;-71
2022/04/26 09:37:06;;;;;;;;;;;;;;;18.83;43.10;92193.06;2055735;69;20050;-70
2022/04/26 09:39:32;;;;;;;;;;;;;;;18.54;43.54;92189.56;2055677;69;20048;-71
2022/04/26 09:41:57;;;;;;;;;;;;;;;18.42;43.17;92184.31;2068771;69;20058;-71
2022/04/26 09:44:30;;;;;;;;;;;;;;;18.99;42.22;92188.44;2068754;69;20050;-71
2022/04/26 09:46:55;;;;;;;;;;;;;;;19.00;43.26;92175.63;2055689;70;20058;-71
2022/04/26 09:49:22;;;;;;;;;;;;;;;19.71;42.20;92173.50;2055723;70;20388;-71
2022/04/26 09:51:49;;;;;;;;;;;;;;;18.63;41.89;92176.22;2055557;70;20138;-70
2022/04/26 09:54:15;;;;;;;;;;;;;;;19.37;41.44;92162.09;2055359;70;20595;-71
2022/04/26 09:56:43;;;;;;;;;;;;;;;20.82;42.19;92156.03;2055677;70;20111;-71
2022/04/26 09:59:12;;;;;;;;;;;;;;;21.42;41.20;92158.28;2068748;69;20070;-71
2022/04/26 10:01:41;;;;;;;;;;;;;;;20.60;38.49;92147.84;2055740;70;20046;-73
2022/04/26 10:04:08;;;;;;;;;;;;;;;21.77;39.64;92144.34;2055655;70;20043;-71
2022/04/26 10:06:34;;;;;;;;;;;;;;;21.36;38.53;92134.59;2055737;69;20078;-73
2022/04/26 10:09:00;;;;;;;;;;;;;;;21.20;37.96;92129.34;2055552;70;20058;-70
2022/04/26 10:11:26;;;;;;;;;;;;;;;22.67;37.04;92128.66;2055745;70;20058;-71
2022/04/26 10:13:51;;;;;;;;;;;;;;;22.63;36.82;92131.50;2055599;70;20544;-71
2022/04/26 10:16:21;;;;;;;;;;;;;;;22.92;35.37;92138.19;2055663;70;20042;-72
2022/04/26 10:18:48;;;;;;;;;;;;;;;21.40;34.57;92123.19;2055738;69;20094;-72
2022/04/26 10:21:22;;;;;;;;;;;;;;;20.86;37.43;92113.19;2055782;69;20148;-71
2022/04/26 10:23:51;;;;;;;;;;;;;;;22.20;35.48;92107.50;2055524;70;20086;-70
2022/04/26 10:26:26;;;;;;;;;;;;;;;21.30;35.38;92123.75;2055688;70;20500;-74
2022/04/26 10:28:57;;;;;;;;;;;;;;;21.47;36.20;92113.22;2055480;70;20482;-71
2022/04/26 10:31:41;;;;;;;;;;;;;;;21.07;35.43;92108.44;2055645;70;20518;-70
2022/04/26 10:34:26;;;;;;;;;;;;;;;20.99;36.33;92094.06;2055595;70;20050;-72
2022/04/26 10:36:59;;;;;;;;;;;;;;;19.97;37.59;92098.97;2055544;69;20066;-71
2022/04/26 10:39:26;;;;;;;;;;;;;;;20.56;36.22;92094.19;2068493;69;20494;-74
2022/04/26 10:41:53;;;;;;;;;;;;;;;19.71;37.51;92101.41;2055606;69;20115;-72
2022/04/26 10:44:22;;;;;;;;;;;;;;;18.74;37.23;92092.41;2055571;70;20106;-70
2022/04/26 10:46:53;;;;;;;;;;;;;;;18.30;38.19;92098.53;2055615;70;20050;-69
2022/04/26 10:49:24;;;;;;;;;;;;;;;18.79;37.68;92106.06;2068617;69;20094;-70
2022/04/26 10:51:55;;;;;;;;;;;;;;;18.37;37.92;92105.09;2055523;70;20142;-70
2022/04/26 10:54:39;;;;;;;;;;;;;;;18.46;37.90;92116.00;2055449;69;20438;-72
2022/04/26 10:57:05;;;;;;;;;;;;;;;18.56;40.33;92114.78;2055544;70;20061;-70
2022/04/26 10:59:30;;;;;;;;;;;;;;;18.47;39.19;92117.44;2055661;70;20057;-71
2022/04/26 11:01:55;;;;;;;;;;;;;;;18.70;40.97;92123.66;2055540;69;20149;-72
2022/04/26 11:04:21;;;;;;;;;;;;;;;18.46;41.64;92132.34;2055585;70;20429;-71
2022/04/26 11:06:47;;;;;;;;;;;;;;;18.21;41.96;92146.06;2055625;70;20090;-70
2022/04/26 11:09:14;;;;;;;;;;;;;;;16.90;45.72;92164.63;2068416;69;20142;-74
2022/04/26 11:12:09;;;;;;;;;;;;;;;17.22;45.51;92190.44;2055245;69;20140;-70
2022/04/26 11:14:40;;;;;;;;;;;;;;;16.95;46.70;92205.28;2055099;69;20058;-69
2022/04/26 11:17:06;;;;;;;;;;;;;;;17.44;47.39;92220.91;2059552;69;20097;-69
2022/04/26 11:19:33;;;;;;;;;;;;;;;16.96;50.89;92238.75;2057379;69;20141;-71
2022/04/26 11:22:08;;;;;;;;;;;;;;;15.27;50.87;92235.28;2060037;69;20104;-71
2022/04/26 11:30:04;;;;;;;;;;;;;;;14.33;54.11;92266.41;2057197;69;20072;-71
2022/04/26 11:32:34;;;;;;;;;;;;;;;14.40;55.86;92282.28;2057358;69;20065;-70
2022/04/26 11:35:00;;;;;;;;;;;;;;;14.04;54.70;92284.34;2056973;69;20563;-70
2022/04/26 11:37:26;;;;;;;;;;;;;;;13.97;54.23;92300.38;2056616;69;20141;-72
2022/04/26 11:39:51;;;;;;;;;;;;;;;13.53;56.14;92313.31;2055846;70;20058;-73
2022/04/26 11:42:17;;;;;;;;;;;;;;;13.88;56.12;92326.84;2055982;70;20053;-71
2022/04/26 11:45:02;;;;;;;;;;;;;;;14.43;53.84;92320.63;2055971;69;20051;-72
2022/04/26 11:47:41;;;;;;;;;;;;;;;13.04;54.26;92339.38;2055844;69;20432;-72
2022/04/26 11:50:18;;;;;;;;;;;;;;;14.21;53.05;92336.72;2055956;70;20054;-70
2022/04/26 11:52:44;;;;;;;;;;;;;;;13.95;54.25;92348.38;2069053;69;20050;-73
2022/04/26 11:55:19;;;;;;;;;;;;;;;14.16;53.06;92364.13;2055818;70;20521;-72
2022/04/26 11:57:45;;;;;;;;;;;;;;;13.88;54.29;92371.38;2055949;69;20047;-72
2022/04/26 12:00:11;;;;;;;;;;;;;;;13.10;58.43;92386.97;2055950;69;20478;-71
2022/04/26 12:02:36;;;;;;;;;;;;;;;12.18;58.92;92393.88;2068919;69;20053;-72
2022/04/26 12:05:02;;;;;;;;;;;;;;;12.54;56.33;92411.16;2055900;70;20062;-71
2022/04/26 12:07:30;;;;;;;;;;;;;;;13.20;55.33;92416.44;2069025;69;20054;-70
2022/04/26 12:09:55;;;;;;;;;;;;;;;12.95;54.33;92434.34;2055764;70;20061;-71
2022/04/26 12:12:21;;;;;;;;;;;;;;;13.07;55.36;92442.66;2055988;69;20050;-71
2022/04/26 12:14:47;;;;;;;;;;;;;;;12.81;58.11;92447.78;2055753;70;20135;-71
2022/04/26 12:17:22;;;;;;;;;;;;;;;12.97;58.84;92459.88;2068663;69;20086;-70
2022/04/26 12:19:51;;;;;;;;;;;;;;;12.50;60.84;92470.22;2055860;69;20511;-70
2022/04/26 12:22:20;;;;;;;;;;;;;;;12.72;59.28;92472.06;2055745;69;20047;-70
2022/04/26 12:24:49;;;;;;;;;;;;;;;12.68;59.92;92491.63;2055549;70;20485;-69
2022/04/26 12:27:15;;;;;;;;;;;;;;;12.41;60.85;92500.16;2055722;69;20046;-69
2022/04/26 12:29:46;;;;;;;;;;;;;;;12.57;59.11;92517.91;2068676;69;20053;-70
2022/04/26 12:32:11;;;;;;;;;;;;;;;12.50;59.73;92529.53;2055614;70;20050;-70
2022/04/26 12:34:45;;;;;;;;;;;;;;;12.58;58.21;92538.41;2055812;70;20049;-71
2022/04/26 12:37:16;;;;;;;;;;;;;;;11.95;58.28;92547.88;2055711;69;20057;-70
2022/04/26 12:39:48;;;;;;;;;;;;;;;11.67;62.41;92555.53;2068537;69;20435;-70
2022/04/26 12:42:37;;;;;;;;;;;;;;;11.90;60.56;92565.22;2056295;69;20060;-70
2022/04/26 12:45:13;;;;;;;;;;;;;;;12.32;60.30;92568.84;2059069;69;20046;-71
2022/04/26 12:50:33;;;;;;;;;;;;;;;12.21;60.45;92565.50;2071746;69;20477;-70
2022/04/26 12:52:59;;;;;;;;;;;;;;;12.18;60.04;92569.56;2058791;69;20070;-71
2022/04/26 12:55:29;;;;;;;;;;;;;;;11.78;60.23;92564.56;2058178;69;20093;-70
2022/04/26 12:57:56;;;;;;;;;;;;;;;11.76;60.59;92570.06;2056528;69;20481;-70
2022/04/26 13:00:22;;;;;;;;;;;;;;;11.80;60.14;92576.66;2068612;69;20058;-71
2022/04/26 13:02:48;;;;;;;;;;;;;;;12.18;57.80;92586.47;2055511;70;20498;-71
2022/04/26 13:05:15;;;;;;;;;;;;;;;12.05;59.51;92578.75;2068409;69;20055;-71
2022/04/26 13:07:41;;;;;;;;;;;;;;;12.00;59.97;92596.78;2055569;70;20058;-70
2022/04/26 13:10:06;;;;;;;;;;;;;;;12.33;59.17;92604.91;2055276;70;20496;-71
2022/04/26 13:12:32;;;;;;;;;;;;;;;12.49;58.56;92607.13;2055507;70;20141;-70
2022/04/26 13:14:58;;;;;;;;;;;;;;;12.02;57.69;92608.22;2055666;70;20063;-71
2022/04/26 13:17:24;;;;;;;;;;;;;;;11.92;59.55;92610.50;2055695;69;20092;-70
2022/04/26 13:19:49;;;;;;;;;;;;;;;12.07;60.95;92617.63;2055789;70;20094;-70
2022/04/26 13:22:16;;;;;;;;;;;;;;;11.97;60.64;92617.81;2055664;69;20068;-70
2022/04/26 13:24:42;;;;;;;;;;;;;;;11.75;61.45;92625.75;2055540;69;20057;-70
2022/04/26 13:27:07;;;;;;;;;;;;;;;12.28;58.71;92620.19;2055692;70;20050;-69
2022/04/26 13:29:33;;;;;;;;;;;;;;;11.83;61.65;92626.22;2055739;69;20129;-70
2022/04/26 13:31:58;;;;;;;;;;;;;;;11.97;61.29;92622.72;2055762;70;20176;-70
2022/04/26 13:34:24;;;;;;;;;;;;;;;12.13;59.22;92629.97;2055880;70;20046;-72
2022/04/26 13:36:50;;;;;;;;;;;;;;;12.20;58.82;92605.63;2055739;69;20096;-70
2022/04/26 13:39:15;;;;;;;;;;;;;;;11.55;61.11;92590.81;2055610;70;20880;-70
2022/04/26 13:41:41;;;;;;;;;;;;;;;11.25;63.25;92567.28;2055417;70;20094;-71
2022/04/26 13:44:06;;;;;;;;;;;;;;;11.41;62.73;92562.56;2055243;70;20054;-71
2022/04/26 13:46:32;;;;;;;;;;;;;;;12.71;60.07;92563.81;2055608;70;20141;-70
2022/04/26 13:48:57;;;;;;;;;;;;;;;16.38;53.93;92565.03;2055669;69;20080;-71
2022/04/26 13:51:27;;;;;;;;;;;;;;;19.77;47.62;92569.84;2055728;69;20053;-71
2022/04/26 13:53:53;;;;;;;;;;;;;;;20.37;45.37;92569.81;2055701;69;20054;-71
2022/04/26 13:56:18;;;;;;;;;;;;;;;18.77;45.56;92570.03;2055828;69;20135;-71
2022/04/26 13:58:45;;;;;;;;;;;;;;;17.95;45.60;92564.00;2055839;70;20137;-71
2022/04/26 14:01:11;;;;;;;;;;;;;;;16.86;44.96;92571.06;2055819;69;20043;-71
2022/04/26 14:03:36;;;;;;;;;;;;;;;17.34;46.83;92567.72;2055710;69;20054;-71
2022/04/26 14:06:02;;;;;;;;;;;;;;;17.86;43.99;92562.31;2055759;70;20401;-71
2022/04/26 14:08:29;;;;;;;;;;;;;;;17.33;44.72;92569.09;2055773;69;20104;-72
2022/04/26 14:10:54;;;;;;;;;;;;;;;17.92;42.80;92571.78;2055886;69;20145;-71
2022/04/26 14:13:20;;;;;;;;;;;;;;;16.57;46.02;92577.06;2055583;69;20174;-71
2022/04/26 14:24:05;;;;;;;;;;;;;;;15.55;43.61;92575.97;2055592;70;20050;-72
2022/04/26 14:26:30;;;;;;;;;;;;;;;15.88;48.44;92573.06;2055772;70;20053;-71
2022/04/26 14:28:56;;;;;;;;;;;;;;;15.67;48.69;92563.03;2065778;69;20050;-72
2022/04/26 14:31:21;;;;;;;;;;;;;;;15.61;47.26;92573.38;2055503;70;20086;-72
2022/04/26 14:33:47;;;;;;;;;;;;;;;14.86;47.52;92574.56;2055570;70;20051;-71
2022/04/26 14:36:12;;;;;;;;;;;;;;;14.97;46.16;92564.38;2055730;70;20046;-71
2022/04/26 14:38:38;;;;;;;;;;;;;;;14.42;47.57;92561.97;2055551;70;20052;-71
2022/04/26 14:41:04;;;;;;;;;;;;;;;14.63;47.29;92566.47;2055610;70;20057;-71
2022/04/26 14:43:29;;;;;;;;;;;;;;;14.94;46.36;92572.09;2055577;70;20073;-72
2022/04/26 14:45:55;;;;;;;;;;;;;;;15.51;46.00;92570.88;2055547;69;20046;-71
2022/04/26 14:48:23;;;;;;;;;;;;;;;15.23;46.60;92570.44;2068594;69;20047;-71
2022/04/26 14:50:48;;;;;;;;;;;;;;;15.97;46.09;92574.84;2068620;69;20050;-71
2022/04/26 14:53:14;;;;;;;;;;;;;;;15.67;46.70;92573.66;2055408;70;20130;-71
2022/04/26 14:55:40;;;;;;;;;;;;;;;16.01;46.12;92563.66;2055522;69;20070;-71
2022/04/26 14:58:09;;;;;;;;;;;;;;;16.15;45.65;92557.78;2055540;70;20470;-71
2022/04/26 15:00:36;;;;;;;;;;;;;;;16.14;45.60;92552.78;2055795;69;20163;-71
2022/04/26 15:03:01;;;;;;;;;;;;;;;15.00;46.58;92555.31;2055464;70;20040;-71
2022/04/26 15:05:27;;;;;;;;;;;;;;;15.09;46.37;92555.66;2055626;70;20050;-71
2022/04/26 15:10:36;;;;;;;;;;;;;;;15.29;44.69;92542.31;2055642;70;20089;-71
2022/04/26 15:18:30;;;;;;;;;;;;;;;15.03;48.42;92532.72;2055650;70;20297;-70
2022/04/26 15:20:55;;;;;;;;;;;;;;;15.22;48.46;92532.84;2055482;70;20562;-71
2022/04/26 15:23:21;;;;;;;;;;;;;;;15.07;45.42;92530.06;2055314;70;20057;-71
2022/04/26 15:25:52;;;;;;;;;;;;;;;15.09;47.50;92527.31;2055437;70;20061;-71
2022/04/26 15:28:18;;;;;;;;;;;;;;;15.27;46.37;92535.84;2068121;69;20455;-71
2022/04/26 15:30:44;;;;;;;;;;;;;;;14.78;47.11;92539.47;2055455;70;20082;-70
2022/04/26 15:33:10;;;;;;;;;;;;;;;13.52;51.13;92535.28;2068407;69;20078;-72
2022/04/26 15:35:36;;;;;;;;;;;;;;;14.07;48.17;92534.97;2055458;70;20058;-71
2022/04/26 15:38:03;;;;;;;;;;;;;;;14.75;48.08;92541.47;2055413;70;20047;-71
2022/04/26 15:40:28;;;;;;;;;;;;;;;15.17;47.47;92545.41;2055555;70;20050;-70
2022/04/26 15:42:53;;;;;;;;;;;;;;;15.43;47.28;92542.16;2055346;70;20142;-70
2022/04/26 15:45:19;;;;;;;;;;;;;;;14.98;47.03;92529.75;2055526;70;20177;-71
2022/04/26 15:47:44;;;;;;;;;;;;;;;14.87;46.50;92524.28;2055367;70;20425;-71
2022/04/26 15:50:10;;;;;;;;;;;;;;;13.42;49.31;92534.78;2055488;70;20474;-71
2022/04/26 15:52:37;;;;;;;;;;;;;;;12.53;50.49;92529.00;2055490;70;20050;-71
2022/04/26 15:55:04;;;;;;;;;;;;;;;13.64;49.12;92529.44;2055258;70;20051;-70
2022/04/26 15:57:29;;;;;;;;;;;;;;;14.15;48.61;92523.25;2055298;69;20077;-71
2022/04/26 15:59:55;;;;;;;;;;;;;;;15.08;47.25;92526.59;2055411;70;20058;-70
2022/04/26 16:02:23;;;;;;;;;;;;;;;15.32;47.46;92538.19;2055388;70;20077;-70
2022/04/26 16:04:49;;;;;;;;;;;;;;;15.18;48.76;92540.47;2055308;70;20062;-70
2022/04/26 16:07:14;;;;;;;;;;;;;;;15.39;49.76;92537.06;2055669;70;20046;-71
2022/04/26 16:20:46;;;;;;;;;;;;;;;13.96;48.84;92544.34;2066734;69;20140;-68
2022/04/26 16:23:12;;;;;;;;;;;;;;;14.98;47.34;92543.16;2058502;69;20069;-70
2022/04/26 16:25:37;;;;;;;;;;;;;;;15.35;46.66;92551.09;2058867;69;20619;-69
2022/04/26 16:28:03;;;;;;;;;;;;;;;15.44;46.55;92538.69;2056530;69;20094;-69
2022/04/26 16:30:30;;;;;;;;;;;;;;;15.33;48.05;92550.28;2055625;69;20078;-70
2022/04/26 16:32:56;;;;;;;;;;;;;;;15.45;48.94;92551.50;2055578;69;20084;-71
2022/04/26 16:35:22;;;;;;;;;;;;;;;15.02;52.31;92546.16;2055974;70;20155;-70
2022/04/26 16:37:48;;;;;;;;;;;;;;;15.05;52.05;92559.06;2055777;69;20050;-70
2022/04/26 16:40:13;;;;;;;;;;;;;;;14.87;54.17;92555.47;2055590;70;20065;-70
2022/04/26 16:42:39;;;;;;;;;;;;;;;15.06;52.33;92569.03;2055572;70;20054;-70
2022/04/26 16:45:08;;;;;;;;;;;;;;;14.85;54.11;92558.22;2055617;70;20062;-70
2022/04/26 16:47:37;;;;;;;;;;;;;;;14.86;52.54;92571.72;2068479;69;20058;-70
2022/04/26 16:50:04;;;;;;;;;;;;;;;14.62;55.58;92579.19;2055631;70;20050;-71
2022/04/26 16:52:29;;;;;;;;;;;;;;;14.36;53.68;92581.53;2055512;70;20643;-70
2022/04/26 16:54:55;;;;;;;;;;;;;;;14.32;54.32;92582.09;2055497;70;20165;-72
2022/04/26 16:57:20;;;;;;;;;;;;;;;14.13;54.00;92588.28;2055584;69;20055;-71
2022/04/26 16:59:46;;;;;;;;;;;;;;;14.42;53.38;92587.47;2055662;70;20069;-73
2022/04/26 17:02:14;;;;;;;;;;;;;;;14.47;53.22;92591.94;2055740;70;20063;-73
2022/04/26 17:04:40;;;;;;;;;;;;;;;13.84;52.10;92586.25;2055791;69;20078;-70
2022/04/26 17:07:05;;;;;;;;;;;;;;;13.40;53.12;92591.25;2068586;69;20050;-71
2022/04/26 17:09:34;;;;;;;;;;;;;;;13.82;51.88;92588.97;2055232;70;20451;-70
2022/04/26 17:12:00;;;;;;;;;;;;;;;13.80;53.12;92588.91;2055577;69;20066;-70
2022/04/26 17:14:27;;;;;;;;;;;;;;;13.83;55.16;92602.47;2055866;69;20428;-70